Time;durP1;ratioP1;P1;durP2;ratioP2;P2;SDS_P1;SDS_P2;PMS_P1;PMS_P2;Temp;Humidity;BMP_temperature;BMP_pressure;BME280_temperature;BME280_humidity;BME280_pressure;Samples;Min_cycle;Max_cycle;Signal;HPM_P1;HPM_P2
2021/07/18 00:00:33;;;;;;;7.97;2.47;;;17.20;99.90;;;;;;5092468;28;20077;-71
2021/07/18 00:02:59;;;;;;;5.53;2.53;;;17.20;99.90;;;;;;5092934;28;20656;-72
2021/07/18 00:05:25;;;;;;;3.97;2.35;;;17.10;99.90;;;;;;5092550;28;20119;-72
2021/07/18 00:07:50;;;;;;;7.47;2.72;;;17.10;99.90;;;;;;5067641;28;20036;-72
2021/07/18 00:10:16;;;;;;;8.82;2.85;;;17.10;99.90;;;;;;5077835;28;20032;-72
2021/07/18 00:12:42;;;;;;;6.85;2.20;;;17.10;99.90;;;;;;5057483;28;20063;-74
2021/07/18 00:15:11;;;;;;;7.35;2.97;;;17.00;99.90;;;;;;5054917;28;20608;-72
2021/07/18 00:17:37;;;;;;;6.35;2.97;;;17.00;99.90;;;;;;5076031;28;20150;-72
2021/07/18 00:20:11;;;;;;;9.27;2.75;;;17.00;99.90;;;;;;5075459;28;20052;-72
2021/07/18 00:22:37;;;;;;;4.93;2.88;;;17.00;99.90;;;;;;5067613;28;20052;-72
2021/07/18 00:25:04;;;;;;;7.20;3.30;;;16.90;99.90;;;;;;5057396;28;20059;-72
2021/07/18 00:27:30;;;;;;;3.92;2.55;;;17.00;99.90;;;;;;5067263;28;20038;-72
2021/07/18 00:29:56;;;;;;;7.13;3.13;;;16.90;99.90;;;;;;5080198;28;20116;-72
2021/07/18 00:32:21;;;;;;;7.03;2.75;;;16.90;99.90;;;;;;5082466;28;20085;-72
2021/07/18 00:34:47;;;;;;;5.90;2.78;;;16.90;99.90;;;;;;5058773;28;20040;-72
2021/07/18 00:37:12;;;;;;;5.85;3.00;;;16.80;99.90;;;;;;5053573;28;20107;-72
2021/07/18 00:39:38;;;;;;;4.63;2.75;;;16.80;99.90;;;;;;5070907;28;20043;-72
2021/07/18 00:42:04;;;;;;;5.00;2.80;;;16.80;99.90;;;;;;5049862;28;20461;-72
2021/07/18 00:44:30;;;;;;;7.80;3.25;;;16.80;99.90;;;;;;5086728;28;20105;-72
2021/07/18 00:46:55;;;;;;;8.73;2.70;;;16.70;99.90;;;;;;5090753;28;20115;-72
2021/07/18 00:49:21;;;;;;;5.00;2.35;;;16.70;99.90;;;;;;5085619;28;20396;-72
2021/07/18 00:51:47;;;;;;;6.07;2.45;;;16.70;99.90;;;;;;5067301;28;20044;-72
2021/07/18 00:54:14;;;;;;;8.48;3.17;;;16.70;99.90;;;;;;5083400;28;20087;-72
2021/07/18 00:56:40;;;;;;;6.35;2.60;;;16.70;99.90;;;;;;5091581;28;20036;-72
2021/07/18 00:59:06;;;;;;;5.32;2.40;;;16.70;99.90;;;;;;5090908;28;20035;-72
2021/07/18 01:01:31;;;;;;;8.35;2.60;;;16.70;99.90;;;;;;5087322;28;20463;-73
2021/07/18 01:03:57;;;;;;;9.25;2.60;;;16.60;99.90;;;;;;5082950;28;20393;-72
2021/07/18 01:06:24;;;;;;;5.72;2.90;;;16.60;99.90;;;;;;5069518;28;20068;-72
2021/07/18 01:08:50;;;;;;;6.00;2.50;;;16.60;99.90;;;;;;5083582;28;20113;-72
2021/07/18 01:11:16;;;;;;;5.28;2.28;;;16.60;99.90;;;;;;5070049;28;20021;-72
2021/07/18 01:13:42;;;;;;;7.05;2.38;;;16.50;99.90;;;;;;5074992;28;20025;-72
2021/07/18 01:16:07;;;;;;;8.88;2.83;;;16.50;99.90;;;;;;5081699;28;20039;-72
2021/07/18 01:18:34;;;;;;;5.55;2.17;;;16.50;99.90;;;;;;5091140;28;20025;-72
2021/07/18 01:21:00;;;;;;;6.15;2.42;;;16.50;99.90;;;;;;5068212;28;20020;-72
2021/07/18 01:23:26;;;;;;;4.70;2.40;;;16.50;99.90;;;;;;5082608;28;20032;-72
2021/07/18 01:25:55;;;;;;;7.13;2.85;;;16.50;99.90;;;;;;5070845;28;20116;-72
2021/07/18 01:28:21;;;;;;;6.80;2.58;;;16.40;99.90;;;;;;5070529;28;20040;-71
2021/07/18 01:30:48;;;;;;;7.18;2.70;;;16.40;99.90;;;;;;5052920;28;20036;-72
2021/07/18 01:33:13;;;;;;;4.97;2.53;;;16.40;99.90;;;;;;5073939;28;20032;-72
2021/07/18 01:35:39;;;;;;;10.93;2.90;;;16.40;99.90;;;;;;5084003;28;20396;-72
2021/07/18 01:38:10;;;;;;;6.18;3.15;;;16.40;99.90;;;;;;5071393;28;20036;-72
2021/07/18 01:40:36;;;;;;;6.45;2.72;;;16.40;99.90;;;;;;5070478;28;20021;-72
2021/07/18 01:43:02;;;;;;;9.70;3.22;;;16.40;99.90;;;;;;5078059;28;20039;-72
2021/07/18 01:45:28;;;;;;;5.90;3.28;;;16.40;99.90;;;;;;5062339;28;20041;-71
2021/07/18 01:47:53;;;;;;;9.23;3.33;;;16.40;99.90;;;;;;5085786;28;20117;-72
2021/07/18 01:50:19;;;;;;;7.53;3.67;;;16.40;99.90;;;;;;5083322;28;20120;-72
2021/07/18 01:52:46;;;;;;;9.50;3.53;;;16.40;99.90;;;;;;5070486;28;20028;-72
2021/07/18 01:55:13;;;;;;;7.88;2.70;;;16.30;99.90;;;;;;5078152;28;20071;-72
2021/07/18 01:57:39;;;;;;;7.32;3.13;;;16.30;99.90;;;;;;5079869;28;20029;-72
2021/07/18 02:00:07;;;;;;;8.23;3.95;;;16.30;99.90;;;;;;5071666;28;20036;-72
2021/07/18 02:02:33;;;;;;;6.00;3.15;;;16.30;99.90;;;;;;5069778;28;20051;-72
2021/07/18 02:04:59;;;;;;;7.70;3.00;;;16.30;99.90;;;;;;5068791;28;20721;-72
2021/07/18 02:07:28;;;;;;;9.45;3.63;;;16.30;99.90;;;;;;5069272;28;20029;-72
2021/07/18 02:09:55;;;;;;;6.93;3.17;;;16.30;99.90;;;;;;5081862;28;20047;-72
2021/07/18 02:12:21;;;;;;;11.93;4.07;;;16.30;99.90;;;;;;5071466;28;20050;-72
2021/07/18 02:14:47;;;;;;;6.68;3.00;;;16.30;99.90;;;;;;5075885;28;20567;-72
2021/07/18 02:17:13;;;;;;;7.10;3.47;;;16.30;99.90;;;;;;5089334;28;20036;-72
2021/07/18 02:19:39;;;;;;;9.88;2.75;;;16.20;99.90;;;;;;5089035;28;20119;-72
2021/07/18 02:22:05;;;;;;;6.72;3.55;;;16.20;99.90;;;;;;5066782;28;20063;-72
2021/07/18 02:24:31;;;;;;;9.10;3.33;;;16.20;99.90;;;;;;5086209;28;20047;-72
2021/07/18 02:26:57;;;;;;;7.95;2.95;;;16.20;99.90;;;;;;5082108;28;20037;-72
2021/07/18 02:29:24;;;;;;;10.75;4.13;;;16.20;99.90;;;;;;5072703;28;20526;-72
2021/07/18 02:31:54;;;;;;;8.13;3.50;;;16.20;99.90;;;;;;5089955;28;20043;-72
2021/07/18 02:34:20;;;;;;;10.02;2.92;;;16.20;99.90;;;;;;5081916;28;20036;-72
2021/07/18 02:36:46;;;;;;;6.85;3.92;;;16.20;99.90;;;;;;5080514;28;20043;-72
2021/07/18 02:39:11;;;;;;;6.55;3.35;;;16.10;99.90;;;;;;5068118;28;20025;-72
2021/07/18 02:41:37;;;;;;;7.18;2.92;;;16.20;99.90;;;;;;5068756;28;20020;-72
2021/07/18 02:44:04;;;;;;;8.02;3.95;;;16.10;99.90;;;;;;5073408;28;20115;-72
2021/07/18 02:46:30;;;;;;;6.28;2.97;;;16.10;99.90;;;;;;5073197;28;20115;-72
2021/07/18 02:48:56;;;;;;;12.20;3.97;;;16.10;99.90;;;;;;5079821;28;20124;-72
2021/07/18 02:51:21;;;;;;;12.18;3.17;;;16.10;99.90;;;;;;5067946;28;20028;-72
2021/07/18 02:53:47;;;;;;;5.95;3.17;;;16.10;99.90;;;;;;5073393;28;20423;-72
2021/07/18 02:56:13;;;;;;;7.40;3.25;;;16.10;99.90;;;;;;5069438;28;20036;-73
2021/07/18 02:58:38;;;;;;;8.52;3.50;;;16.10;99.90;;;;;;5089562;28;20028;-72
2021/07/18 03:01:04;;;;;;;8.07;3.05;;;16.00;99.90;;;;;;5072591;28;20028;-72
2021/07/18 03:03:29;;;;;;;8.68;3.80;;;16.00;99.90;;;;;;5089184;28;20388;-72
2021/07/18 03:05:55;;;;;;;12.95;3.38;;;16.00;99.90;;;;;;5067194;28;20032;-72
2021/07/18 03:08:20;;;;;;;8.02;3.22;;;16.00;99.90;;;;;;5067559;28;20029;-72
2021/07/18 03:10:46;;;;;;;7.55;3.05;;;16.00;99.90;;;;;;5069014;28;20041;-72
2021/07/18 03:13:11;;;;;;;10.20;3.65;;;16.00;99.90;;;;;;5070474;28;20040;-72
2021/07/18 03:15:37;;;;;;;7.90;4.05;;;16.00;99.90;;;;;;5068405;28;20035;-72
2021/07/18 03:18:06;;;;;;;9.13;3.40;;;15.90;99.90;;;;;;5070106;28;20037;-72
2021/07/18 03:20:32;;;;;;;5.57;3.28;;;15.90;99.90;;;;;;5088727;28;20038;-72
2021/07/18 03:22:58;;;;;;;7.82;3.67;;;15.90;99.90;;;;;;5088763;28;20054;-72
2021/07/18 03:25:24;;;;;;;6.85;3.58;;;15.80;99.90;;;;;;5050224;28;20497;-72
2021/07/18 03:27:49;;;;;;;7.35;3.30;;;15.80;99.90;;;;;;5068954;28;20446;-71
2021/07/18 03:30:18;;;;;;;7.30;3.42;;;15.80;99.90;;;;;;5072196;28;20094;-71
2021/07/18 03:32:44;;;;;;;7.40;3.67;;;15.80;99.90;;;;;;5072589;28;20042;-72
2021/07/18 03:35:10;;;;;;;7.57;3.35;;;15.80;99.90;;;;;;5091922;28;20028;-72
2021/07/18 03:37:36;;;;;;;7.63;3.35;;;15.80;99.90;;;;;;5080054;28;20028;-72
2021/07/18 03:40:08;;;;;;;7.30;3.08;;;15.80;99.90;;;;;;5079462;28;20024;-72
2021/07/18 03:42:34;;;;;;;4.32;2.72;;;15.80;99.90;;;;;;5054206;28;20033;-72
2021/07/18 03:44:59;;;;;;;8.90;3.00;;;15.80;99.90;;;;;;5076666;28;20044;-72
2021/07/18 03:47:25;;;;;;;11.30;3.33;;;15.80;99.90;;;;;;5054278;28;20480;-72
2021/07/18 03:49:50;;;;;;;6.07;3.03;;;15.70;99.90;;;;;;5088986;28;20035;-72
2021/07/18 03:52:16;;;;;;;6.18;3.00;;;15.70;99.90;;;;;;5092576;28;20376;-72
2021/07/18 03:54:42;;;;;;;7.05;3.17;;;15.70;99.90;;;;;;5079656;28;20044;-72
2021/07/18 03:57:08;;;;;;;9.40;3.20;;;15.70;99.90;;;;;;5078056;28;20489;-72
2021/07/18 03:59:33;;;;;;;8.85;3.55;;;15.70;99.90;;;;;;5082030;28;20369;-72
2021/07/18 04:01:59;;;;;;;6.68;3.35;;;15.80;99.90;;;;;;5092913;28;20028;-72
2021/07/18 04:04:26;;;;;;;7.57;3.22;;;15.80;99.90;;;;;;5070182;28;20039;-72
2021/07/18 04:06:51;;;;;;;8.55;3.78;;;15.80;99.90;;;;;;5092491;28;20028;-72
2021/07/18 04:09:17;;;;;;;6.38;3.38;;;15.80;99.90;;;;;;5092542;28;20107;-72
2021/07/18 04:11:42;;;;;;;5.05;2.97;;;15.80;99.90;;;;;;5091988;28;20480;-72
2021/07/18 04:14:08;;;;;;;8.68;3.30;;;15.80;99.90;;;;;;5081677;28;20637;-72
2021/07/18 04:16:33;;;;;;;7.15;3.40;;;15.80;99.90;;;;;;5071566;28;20017;-72
2021/07/18 04:18:59;;;;;;;5.75;3.08;;;15.80;99.90;;;;;;5070888;28;20439;-73
2021/07/18 04:21:25;;;;;;;9.38;3.95;;;15.80;99.90;;;;;;5071931;28;20029;-72
2021/07/18 04:23:51;;;;;;;5.88;3.50;;;15.90;99.90;;;;;;5075442;28;20052;-72
2021/07/18 04:26:17;;;;;;;7.15;2.78;;;15.90;99.90;;;;;;5071563;28;20035;-72
2021/07/18 04:28:43;;;;;;;13.73;3.20;;;15.90;99.90;;;;;;5061822;28;20029;-72
2021/07/18 04:31:08;;;;;;;4.63;2.78;;;15.90;99.90;;;;;;5071994;28;20025;-72
2021/07/18 04:33:34;;;;;;;6.40;3.28;;;15.90;99.90;;;;;;5051668;28;20043;-72
2021/07/18 04:36:00;;;;;;;9.13;3.67;;;15.90;99.90;;;;;;5075807;28;20032;-72
2021/07/18 04:38:26;;;;;;;9.45;3.55;;;16.00;99.90;;;;;;5076735;28;20603;-72
2021/07/18 04:40:51;;;;;;;7.35;2.78;;;16.00;99.90;;;;;;5091444;28;20040;-72
2021/07/18 04:43:17;;;;;;;5.95;3.08;;;16.10;99.90;;;;;;5073746;28;20041;-71
2021/07/18 04:45:43;;;;;;;8.43;3.10;;;16.10;99.90;;;;;;5082445;28;20660;-74
2021/07/18 04:48:09;;;;;;;8.70;3.13;;;16.10;99.90;;;;;;5082888;28;20016;-71
2021/07/18 04:50:35;;;;;;;5.43;3.10;;;16.20;99.90;;;;;;5053620;28;20435;-72
2021/07/18 04:53:00;;;;;;;6.32;2.75;;;16.20;99.90;;;;;;5053930;28;20029;-71
2021/07/18 04:55:27;;;;;;;7.15;2.67;;;16.30;99.90;;;;;;5067034;28;20085;-71
2021/07/18 04:57:53;;;;;;;5.15;3.13;;;16.30;99.90;;;;;;5073513;28;20043;-71
2021/07/18 05:00:21;;;;;;;6.80;3.03;;;16.30;99.90;;;;;;5073948;28;20044;-71
2021/07/18 05:02:47;;;;;;;5.82;2.60;;;16.40;99.90;;;;;;5088463;28;20025;-71
2021/07/18 05:05:14;;;;;;;5.68;2.78;;;16.40;99.90;;;;;;5070975;28;20036;-71
2021/07/18 05:07:54;;;;;;;4.82;2.97;;;16.40;99.90;;;;;;5078648;28;20119;-71
2021/07/18 05:10:21;;;;;;;10.00;3.45;;;16.50;99.90;;;;;;5076060;28;20127;-71
2021/07/18 05:12:52;;;;;;;4.75;2.72;;;16.60;99.90;;;;;;5071546;28;20040;-71
2021/07/18 05:15:19;;;;;;;5.63;2.50;;;16.60;99.90;;;;;;5069755;28;20043;-72
2021/07/18 05:17:44;;;;;;;5.78;3.20;;;16.70;99.90;;;;;;5065667;28;20502;-71
2021/07/18 05:20:11;;;;;;;5.20;2.75;;;16.70;99.90;;;;;;5075401;28;20138;-71
2021/07/18 05:22:37;;;;;;;7.68;2.60;;;16.70;99.90;;;;;;5070488;28;20170;-71
2021/07/18 05:25:05;;;;;;;6.43;3.03;;;16.80;99.90;;;;;;5052533;28;20131;-71
2021/07/18 05:27:31;;;;;;;4.28;2.38;;;16.80;99.90;;;;;;5070573;28;20073;-71
2021/07/18 05:29:56;;;;;;;7.95;2.75;;;16.80;99.90;;;;;;5071491;28;20543;-73
2021/07/18 05:32:22;;;;;;;9.38;2.83;;;16.90;99.90;;;;;;5052272;28;20116;-73
2021/07/18 05:34:48;;;;;;;9.55;2.90;;;17.00;99.90;;;;;;5073038;28;20039;-73
2021/07/18 05:37:14;;;;;;;6.63;2.50;;;17.10;99.90;;;;;;5052282;28;20119;-73
2021/07/18 05:39:39;;;;;;;10.27;2.60;;;17.30;99.90;;;;;;5075239;28;20124;-73
2021/07/18 05:42:05;;;;;;;9.32;2.75;;;17.50;99.90;;;;;;5070324;28;20130;-73
2021/07/18 05:44:32;;;;;;;5.93;2.70;;;17.80;99.90;;;;;;5076890;28;20114;-73
2021/07/18 05:46:58;;;;;;;7.85;2.28;;;18.10;99.90;;;;;;5078211;28;20037;-73
2021/07/18 05:49:25;;;;;;;8.50;3.10;;;18.30;99.90;;;;;;5090822;28;20450;-73
2021/07/18 05:51:50;;;;;;;5.15;2.22;;;18.50;99.90;;;;;;5073325;28;20036;-73
2021/07/18 05:54:16;;;;;;;9.70;3.15;;;18.70;99.90;;;;;;5070427;28;20039;-73
2021/07/18 05:56:41;;;;;;;7.88;3.42;;;18.80;99.90;;;;;;5056824;28;20401;-74
2021/07/18 05:59:07;;;;;;;8.10;3.00;;;18.90;99.90;;;;;;5065093;28;20041;-73
2021/07/18 06:01:32;;;;;;;5.28;2.45;;;19.00;99.90;;;;;;5078487;28;20051;-73
2021/07/18 06:03:58;;;;;;;4.85;2.78;;;19.10;99.90;;;;;;5088849;28;20512;-73
2021/07/18 06:06:23;;;;;;;7.68;3.13;;;19.20;99.90;;;;;;5077372;28;20199;-73
2021/07/18 06:08:49;;;;;;;9.23;2.92;;;19.30;99.90;;;;;;5090173;28;20036;-73
2021/07/18 06:11:15;;;;;;;9.07;3.00;;;19.50;99.90;;;;;;5082327;28;20039;-73
2021/07/18 06:13:41;;;;;;;6.53;2.90;;;19.50;99.90;;;;;;5058691;28;20029;-73
2021/07/18 06:16:07;;;;;;;6.55;3.45;;;19.70;99.90;;;;;;5052076;28;20035;-72
2021/07/18 06:18:33;;;;;;;9.60;2.78;;;19.80;99.90;;;;;;5051615;28;20036;-73
2021/07/18 06:20:58;;;;;;;6.90;2.55;;;19.90;99.90;;;;;;5054160;28;20056;-74
2021/07/18 06:23:24;;;;;;;7.15;2.88;;;20.10;99.90;;;;;;5084532;28;20033;-74
2021/07/18 06:25:49;;;;;;;6.40;2.95;;;20.30;99.90;;;;;;5069389;28;20059;-73
2021/07/18 06:28:15;;;;;;;9.50;3.08;;;20.50;99.90;;;;;;5051327;28;20044;-73
2021/07/18 06:30:41;;;;;;;6.03;2.88;;;20.70;99.90;;;;;;5070163;28;20032;-73
2021/07/18 06:33:06;;;;;;;6.32;2.70;;;20.80;99.90;;;;;;5076386;28;20491;-73
2021/07/18 06:35:32;;;;;;;6.47;2.45;;;20.90;99.90;;;;;;5083055;28;20036;-73
2021/07/18 06:37:57;;;;;;;5.53;2.13;;;21.00;99.90;;;;;;5070143;28;20036;-73
2021/07/18 06:40:23;;;;;;;3.75;1.73;;;21.10;99.90;;;;;;5056845;28;20047;-73
2021/07/18 06:42:48;;;;;;;3.63;1.80;;;21.30;99.90;;;;;;5073721;28;20056;-73
2021/07/18 06:45:14;;;;;;;2.97;1.50;;;21.50;99.90;;;;;;5051309;28;20040;-74
2021/07/18 06:47:40;;;;;;;5.07;1.73;;;21.70;99.90;;;;;;5069683;28;20070;-73
2021/07/18 06:50:07;;;;;;;2.45;1.58;;;22.00;99.90;;;;;;5069382;28;20025;-73
2021/07/18 06:52:32;;;;;;;3.22;1.75;;;22.30;99.90;;;;;;5074179;28;20056;-72
2021/07/18 06:54:58;;;;;;;6.22;1.27;;;22.50;99.90;;;;;;5051168;28;20071;-73
2021/07/18 06:57:24;;;;;;;3.60;1.15;;;22.70;99.90;;;;;;5069374;28;20037;-71
2021/07/18 06:59:50;;;;;;;3.97;1.45;;;23.00;99.90;;;;;;5070087;28;20039;-71
2021/07/18 07:02:16;;;;;;;3.45;1.35;;;23.40;99.90;;;;;;5074888;28;20024;-71
2021/07/18 07:04:43;;;;;;;2.67;1.10;;;23.80;99.90;;;;;;5072820;28;20040;-71
2021/07/18 07:07:09;;;;;;;4.35;1.70;;;24.40;99.90;;;;;;5060037;28;20029;-71
2021/07/18 07:09:35;;;;;;;3.90;1.70;;;25.40;99.90;;;;;;5079397;28;20043;-72
2021/07/18 07:12:01;;;;;;;3.33;1.55;;;26.30;99.90;;;;;;5077711;28;20119;-73
2021/07/18 07:14:26;;;;;;;3.35;1.33;;;27.70;99.90;;;;;;5074540;28;20024;-71
2021/07/18 07:16:52;;;;;;;3.92;1.40;;;28.60;99.90;;;;;;5074667;28;20035;-72
2021/07/18 07:19:17;;;;;;;4.50;1.80;;;29.40;99.40;;;;;;5080185;28;20552;-71
2021/07/18 07:21:43;;;;;;;2.78;1.60;;;30.30;97.40;;;;;;5066532;28;20660;-71
2021/07/18 07:24:09;;;;;;;3.47;1.63;;;31.10;95.30;;;;;;5079674;28;20077;-73
2021/07/18 07:26:35;;;;;;;4.57;1.77;;;31.60;93.60;;;;;;5067313;28;20032;-73
2021/07/18 07:29:00;;;;;;;2.22;1.42;;;32.20;92.60;;;;;;5072718;28;20041;-73
2021/07/18 07:31:26;;;;;;;4.00;1.70;;;32.60;89.80;;;;;;5077209;28;20112;-72
2021/07/18 07:33:52;;;;;;;4.32;1.80;;;33.00;85.30;;;;;;5079541;28;20037;-72
2021/07/18 07:36:18;;;;;;;4.40;1.95;;;33.00;84.10;;;;;;5074842;28;20037;-73
2021/07/18 07:38:45;;;;;;;5.82;1.90;;;33.30;82.00;;;;;;5076262;28;20392;-73
2021/07/18 07:41:10;;;;;;;3.22;1.45;;;33.70;78.70;;;;;;5073551;28;20036;-73
2021/07/18 07:43:36;;;;;;;3.75;1.98;;;33.80;78.60;;;;;;5079667;28;20476;-72
2021/07/18 07:46:03;;;;;;;3.22;1.70;;;34.00;77.90;;;;;;5076008;28;20031;-74
2021/07/18 07:48:28;;;;;;;4.13;1.60;;;34.50;74.10;;;;;;5076499;28;20463;-72
2021/07/18 07:50:57;;;;;;;2.53;1.60;;;34.60;73.00;;;;;;5081999;28;20044;-72
2021/07/18 07:53:23;;;;;;;2.90;1.67;;;34.80;72.90;;;;;;5076694;28;20107;-72
2021/07/18 07:55:48;;;;;;;2.72;1.55;;;34.70;69.70;;;;;;5079663;28;20063;-71
2021/07/18 07:58:14;;;;;;;2.95;1.20;;;34.80;69.30;;;;;;5061765;28;20064;-74
2021/07/18 08:00:40;;;;;;;2.55;1.45;;;35.00;69.10;;;;;;5076193;28;20032;-73
2021/07/18 08:03:05;;;;;;;2.78;1.40;;;35.10;68.00;;;;;;5076507;28;20548;-73
2021/07/18 08:05:31;;;;;;;3.67;1.42;;;35.60;66.70;;;;;;5077124;28;20032;-73
2021/07/18 08:07:56;;;;;;;6.70;1.67;;;35.50;65.50;;;;;;5077018;28;20033;-72
2021/07/18 08:10:23;;;;;;;3.50;1.40;;;36.00;65.10;;;;;;5078865;28;20508;-73
2021/07/18 08:12:49;;;;;;;3.05;1.52;;;35.80;64.80;;;;;;5078157;28;20082;-73
2021/07/18 08:15:16;;;;;;;2.10;1.52;;;35.80;63.60;;;;;;5079072;28;20120;-73
2021/07/18 08:17:42;;;;;;;2.25;1.48;;;35.40;64.30;;;;;;5079622;28;20056;-72
2021/07/18 08:20:24;;;;;;;2.88;1.35;;;35.70;63.90;;;;;;5084167;28;20488;-73
2021/07/18 08:22:52;;;;;;;1.67;1.45;;;35.80;63.40;;;;;;5081999;28;20511;-73
2021/07/18 08:25:19;;;;;;;2.50;1.70;;;35.70;63.30;;;;;;5085710;28;20096;-73
2021/07/18 08:27:45;;;;;;;4.30;1.50;;;35.40;63.80;;;;;;5082612;28;20083;-73
2021/07/18 08:30:11;;;;;;;7.13;1.73;;;35.20;64.40;;;;;;5080545;28;20515;-73
2021/07/18 08:32:38;;;;;;;3.55;1.38;;;35.00;64.30;;;;;;5080162;28;20183;-73
2021/07/18 08:35:04;;;;;;;7.88;1.70;;;34.70;64.60;;;;;;5083470;28;20036;-73
2021/07/18 08:37:30;;;;;;;7.45;1.88;;;34.20;64.00;;;;;;5079539;28;20111;-73
2021/07/18 08:39:55;;;;;;;1.27;1.00;;;34.10;64.40;;;;;;5079066;28;20116;-73
2021/07/18 08:42:22;;;;;;;3.92;1.30;;;33.70;65.80;;;;;;5083661;28;20408;-73
2021/07/18 08:44:48;;;;;;;3.28;1.70;;;33.40;64.70;;;;;;5063340;28;20484;-72
2021/07/18 08:47:16;;;;;;;6.10;1.52;;;33.30;65.60;;;;;;5074014;28;20032;-73
2021/07/18 08:49:42;;;;;;;4.75;1.30;;;33.10;66.60;;;;;;5065654;28;20029;-73
2021/07/18 08:52:07;;;;;;;4.03;1.00;;;33.00;67.30;;;;;;5069996;28;20492;-73
2021/07/18 08:54:34;;;;;;;4.07;1.48;;;32.80;67.90;;;;;;5079482;28;20033;-73
2021/07/18 08:57:00;;;;;;;3.13;0.93;;;32.40;68.30;;;;;;5078088;28;20036;-72
2021/07/18 08:59:27;;;;;;;3.67;1.25;;;32.30;69.30;;;;;;5081414;28;20046;-71
2021/07/18 09:01:53;;;;;;;2.00;0.90;;;31.90;69.10;;;;;;5074986;28;20036;-72
2021/07/18 09:04:19;;;;;;;4.13;1.00;;;31.70;69.50;;;;;;5081436;28;20032;-72
2021/07/18 09:06:47;;;;;;;5.30;1.10;;;31.40;70.10;;;;;;5078641;28;20075;-71
2021/07/18 09:09:16;;;;;;;2.88;0.88;;;31.00;70.30;;;;;;5078870;28;20039;-71
2021/07/18 09:11:43;;;;;;;2.50;0.68;;;30.60;71.90;;;;;;5082612;28;20116;-72
2021/07/18 09:14:11;;;;;;;3.85;1.00;;;30.40;73.30;;;;;;5080355;28;20723;-71
2021/07/18 09:16:38;;;;;;;5.93;1.20;;;30.20;74.60;;;;;;5083031;28;20043;-72
2021/07/18 09:19:18;;;;;;;7.00;0.98;;;29.90;75.20;;;;;;5082769;28;20032;-71
2021/07/18 09:21:50;;;;;;;2.50;0.60;;;29.70;76.20;;;;;;5063664;28;20131;-72
2021/07/18 09:24:19;;;;;;;1.20;0.52;;;29.40;75.10;;;;;;5079323;28;20073;-72
2021/07/18 09:27:01;;;;;;;1.33;0.77;;;29.10;76.60;;;;;;5079881;28;20415;-72
2021/07/18 09:29:27;;;;;;;1.92;0.60;;;29.00;77.70;;;;;;5079885;28;20536;-71
2021/07/18 09:32:08;;;;;;;1.50;0.63;;;28.90;78.00;;;;;;5082040;28;20123;-73
2021/07/18 09:34:37;;;;;;;2.45;0.60;;;28.70;75.90;;;;;;5079871;28;20130;-73
2021/07/18 09:37:23;;;;;;;3.15;0.52;;;28.50;77.30;;;;;;5082719;28;20113;-73
2021/07/18 09:39:57;;;;;;;2.10;0.50;;;28.60;79.80;;;;;;5072258;28;20055;-71
2021/07/18 09:42:44;;;;;;;2.22;0.93;;;28.60;79.10;;;;;;5081491;28;20047;-73
2021/07/18 09:45:14;;;;;;;1.45;0.68;;;28.60;77.90;;;;;;5075734;28;20129;-72
2021/07/18 09:48:03;;;;;;;4.38;0.70;;;28.60;78.30;;;;;;5072828;28;20036;-71
2021/07/18 09:50:46;;;;;;;1.48;0.63;;;28.60;77.60;;;;;;5057028;28;20093;-70
2021/07/18 09:53:22;;;;;;;1.85;0.50;;;28.80;78.00;;;;;;5062161;28;20423;-73
2021/07/18 09:56:03;;;;;;;3.58;0.75;;;28.80;78.40;;;;;;5080979;28;20047;-73
2021/07/18 09:58:31;;;;;;;2.45;0.80;;;28.70;79.90;;;;;;5056269;28;20115;-72
2021/07/18 10:00:59;;;;;;;1.02;0.52;;;28.70;79.20;;;;;;5064240;28;20496;-72
2021/07/18 10:03:27;;;;;;;1.83;0.55;;;28.80;81.10;;;;;;5078603;28;20120;-72
2021/07/18 10:06:10;;;;;;;3.03;0.65;;;28.90;81.90;;;;;;5063293;28;20040;-73
2021/07/18 10:08:40;;;;;;;1.63;0.40;;;28.80;79.00;;;;;;5079430;28;20067;-72
2021/07/18 10:11:11;;;;;;;1.55;0.70;;;28.90;79.80;;;;;;5079107;28;20055;-72
2021/07/18 10:13:38;;;;;;;1.38;0.45;;;28.80;78.80;;;;;;5080296;28;20563;-72
2021/07/18 10:16:08;;;;;;;4.15;0.80;;;28.70;80.50;;;;;;5078113;28;20037;-73
2021/07/18 10:18:38;;;;;;;1.30;0.50;;;28.70;79.60;;;;;;5081434;28;20091;-71
2021/07/18 10:21:09;;;;;;;7.25;0.75;;;28.80;80.60;;;;;;5081172;28;20032;-71
2021/07/18 10:23:38;;;;;;;1.52;0.90;;;28.80;79.90;;;;;;5077812;28;20041;-71
2021/07/18 10:26:04;;;;;;;2.40;0.60;;;28.90;80.30;;;;;;5078171;28;20033;-71
2021/07/18 10:28:29;;;;;;;4.15;1.75;;;29.00;79.50;;;;;;5081623;28;20032;-71
2021/07/18 10:31:04;;;;;;;1.00;0.38;;;28.90;80.60;;;;;;5078210;28;20028;-72
2021/07/18 10:33:31;;;;;;;3.97;0.57;;;28.90;78.90;;;;;;5040396;28;20063;-72
2021/07/18 10:35:58;;;;;;;5.15;0.80;;;28.80;79.10;;;;;;5074238;28;20042;-72
2021/07/18 10:38:25;;;;;;;1.00;0.35;;;28.80;79.90;;;;;;5077764;28;20036;-72
2021/07/18 10:40:53;;;;;;;2.95;0.50;;;28.80;80.10;;;;;;5079605;28;20078;-73
2021/07/18 10:43:39;;;;;;;2.00;0.80;;;28.80;79.80;;;;;;5079821;28;20032;-71
2021/07/18 10:46:10;;;;;;;2.45;0.57;;;28.80;80.80;;;;;;5056777;28;20035;-73
2021/07/18 10:48:44;;;;;;;6.32;0.73;;;28.80;78.50;;;;;;5079674;28;20062;-71
2021/07/18 10:51:11;;;;;;;1.42;0.50;;;28.80;80.00;;;;;;5079902;28;20039;-71
2021/07/18 10:53:38;;;;;;;5.90;0.95;;;28.90;78.70;;;;;;5082139;28;20035;-72
2021/07/18 10:56:04;;;;;;;3.72;0.70;;;28.80;78.40;;;;;;5054839;28;20060;-72
2021/07/18 10:58:39;;;;;;;2.17;0.70;;;28.80;79.00;;;;;;5077850;28;20047;-73
2021/07/18 11:01:23;;;;;;;2.40;0.90;;;28.90;82.70;;;;;;5058575;28;20048;-72
2021/07/18 11:03:49;;;;;;;2.25;0.60;;;29.00;79.90;;;;;;5078033;28;20040;-72
2021/07/18 11:06:36;;;;;;;5.22;0.80;;;29.10;79.90;;;;;;5060906;28;20050;-72
2021/07/18 11:09:17;;;;;;;1.58;0.70;;;29.00;79.40;;;;;;5071204;28;20085;-73
2021/07/18 11:11:44;;;;;;;1.85;0.60;;;29.00;79.20;;;;;;5078987;28;20032;-72
2021/07/18 11:14:49;;;;;;;2.50;0.50;;;29.00;79.50;;;;;;5078693;28;20027;-72
2021/07/18 11:17:28;;;;;;;1.42;0.43;;;29.00;78.10;;;;;;5016836;28;20453;-72
2021/07/18 11:19:59;;;;;;;4.47;0.77;;;29.00;77.50;;;;;;5019247;28;20501;-72
2021/07/18 11:23:03;;;;;;;1.38;0.55;;;28.90;78.30;;;;;;5044446;28;20495;-73
2021/07/18 11:25:46;;;;;;;2.67;1.05;;;28.80;77.90;;;;;;5073791;28;20043;-72
2021/07/18 11:28:31;;;;;;;1.73;0.60;;;28.90;81.00;;;;;;5076242;28;20454;-71
2021/07/18 11:31:12;;;;;;;4.00;0.55;;;29.00;78.00;;;;;;5073888;28;20408;-71
2021/07/18 11:33:40;;;;;;;2.80;0.73;;;29.00;76.90;;;;;;5058564;28;20085;-73
2021/07/18 11:36:07;;;;;;;1.52;0.40;;;29.00;79.80;;;;;;5079254;28;20025;-71
2021/07/18 11:38:33;;;;;;;2.25;0.98;;;29.00;77.80;;;;;;5080985;28;20107;-71
2021/07/18 11:40:59;;;;;;;1.60;0.52;;;29.00;78.70;;;;;;5076819;28;20036;-71
2021/07/18 11:43:24;;;;;;;1.75;0.50;;;28.90;77.50;;;;;;5056961;28;20048;-71
2021/07/18 11:45:53;;;;;;;5.03;0.50;;;28.90;77.40;;;;;;5081120;28;20048;-73
2021/07/18 11:48:22;;;;;;;2.17;0.68;;;28.80;77.80;;;;;;5080164;28;20446;-71
2021/07/18 11:50:48;;;;;;;2.22;0.52;;;28.70;77.60;;;;;;5079573;28;20396;-72
2021/07/18 11:53:18;;;;;;;3.42;0.70;;;28.80;79.20;;;;;;5083606;28;20025;-72
2021/07/18 11:55:44;;;;;;;;;;;28.70;77.90;;;;;;5084372;28;20036;-71
2021/07/18 11:58:09;;;;;;;4.55;0.70;;;28.70;80.80;;;;;;5074473;28;20296;-71
2021/07/18 12:00:52;;;;;;;1.88;0.35;;;28.70;79.40;;;;;;5080532;28;20025;-71
2021/07/18 12:03:18;;;;;;;1.00;0.50;;;28.80;79.10;;;;;;5081281;28;20037;-71
2021/07/18 12:05:43;;;;;;;4.30;0.60;;;28.80;80.90;;;;;;5082600;28;20071;-73
2021/07/18 12:08:09;;;;;;;4.30;0.70;;;28.80;80.70;;;;;;5079506;28;20082;-71
2021/07/18 12:10:35;;;;;;;5.47;0.70;;;28.70;80.60;;;;;;5082246;28;20466;-73
2021/07/18 12:13:00;;;;;;;2.90;0.73;;;28.70;79.90;;;;;;5081778;28;20123;-71
2021/07/18 12:15:26;;;;;;;4.55;0.55;;;28.60;79.50;;;;;;5081397;28;20047;-71
2021/07/18 12:18:06;;;;;;;1.60;0.52;;;28.60;82.70;;;;;;5062694;28;20277;-71
2021/07/18 12:20:31;;;;;;;4.03;0.93;;;28.60;81.10;;;;;;5077164;28;20161;-72
2021/07/18 12:23:15;;;;;;;3.28;1.00;;;28.60;80.20;;;;;;5080661;28;20119;-70
2021/07/18 12:25:41;;;;;;;1.05;0.40;;;28.60;82.20;;;;;;5065146;28;20051;-71
2021/07/18 12:28:08;;;;;;;2.40;0.63;;;28.60;81.00;;;;;;5060408;28;20400;-71
2021/07/18 12:30:34;;;;;;;3.08;0.75;;;28.40;79.50;;;;;;5076201;28;20032;-71
2021/07/18 12:33:09;;;;;;;3.78;0.80;;;28.30;81.50;;;;;;5079083;28;20039;-72
2021/07/18 12:35:35;;;;;;;2.20;0.45;;;28.20;79.60;;;;;;5075537;28;20097;-71
2021/07/18 12:38:06;;;;;;;0.65;0.65;;;28.10;81.40;;;;;;5079577;28;20119;-71
2021/07/18 12:40:32;;;;;;;12.68;1.70;;;28.00;82.20;;;;;;5070761;28;20036;-72
2021/07/18 12:42:58;;;;;;;1.80;0.85;;;28.00;82.40;;;;;;5081349;28;20408;-71
2021/07/18 12:45:24;;;;;;;2.25;0.50;;;28.00;81.90;;;;;;5056973;28;20043;-70
2021/07/18 12:47:59;;;;;;;1.90;0.60;;;27.90;81.90;;;;;;5060392;28;20044;-71